P.t. Monto — VMBF — position and weather

sailwx.info

Track history (hours):
 
Tides and Currents Weather Stations Pressure Air Temp Water Temp Dewpoint Dewpoint Depression Visibility Wind Speed Wind Dir Waves Ship Positions

P.t. Monto

Last reported at 2016-May-28 09:33 UTC. Time now 2016-Jun-26 08:22 UTC.
Position S 36°27' E 150°08'.
Warning: this ship's position is 28 days out of date.

Length 32 m; draft 3.5 m.

Type: Tug. MMSI: 503612000.

Date/timePositionNaut miles runAvg speedWind from/ knotsBaromVisibWave heightAir tempDewpointWater temp
2016-May-28 09:33S 36°27' E 150°08'7 7.2
2016-May-28 08:33S 36°34' E 150°06'7 7.2
2016-May-28 07:33S 36°41' E 150°03'7 7.0
2016-May-28 06:33S 36°48' E 150°01'7 6.8
2016-May-28 05:33S 36°55' E 150°01'7 7.0
2016-May-28 04:33S 37°02' E 150°02'7 6.8
2016-May-28 03:33S 37°08' E 150°04'7 6.6
2016-May-28 02:33S 37°15' E 150°05'7 7.4
2016-May-28 01:33S 37°22' E 150°02'8 7.8
2016-May-28 00:33S 37°30' E 150°01'8 7.6
2016-May-27 23:33S 37°36' E 149°55'8 8.4
2016-May-27 22:33S 37°40' E 149°46'9 8.7
2016-May-27 21:33S 37°46' E 149°38'9 8.7
2016-May-27 20:33S 37°52' E 149°30'8 8.0
2016-May-27 19:33S 37°57' E 149°23'8 7.8
2016-May-27 18:32S 38°03' E 149°15'120 7.5
2016-May-27 02:31S 39°07' E 147°06'6 6.7
2016-May-27 01:33S 39°10' E 146°58'7 7.2
2016-May-27 00:33S 39°12' E 146°49'8 7.5
2016-May-26 23:33S 39°15' E 146°40'8 7.4
2016-May-26 22:31S 39°16' E 146°31'7 7.5
2016-May-26 21:33S 39°16' E 146°21'7 7.4
2016-May-26 20:33S 39°15' E 146°12'7 7.2
2016-May-26 19:33S 39°11' E 146°04'  
Track history (hours):
 
Tides and Currents Weather Stations Pressure Air Temp Water Temp Dewpoint Dewpoint Depression Visibility Wind Speed Wind Dir Waves Ship Positions

P.t. Monto

Last reported at 2016-May-28 09:33 UTC. Time now 2016-Jun-26 08:22 UTC.
Position S 36°27' E 150°08'.
Warning: this ship's position is 28 days out of date.

Length 32 m; draft 3.5 m.

Type: Tug. MMSI: 503612000.

Date/timePositionNaut miles runAvg speedWind from/ knotsBaromVisibWave heightAir tempDewpointWater temp
2016-May-28 09:33S 36°27' E 150°08'7 7.2
2016-May-28 08:33S 36°34' E 150°06'7 7.2
2016-May-28 07:33S 36°41' E 150°03'7 7.0
2016-May-28 06:33S 36°48' E 150°01'7 6.8
2016-May-28 05:33S 36°55' E 150°01'7 7.0
2016-May-28 04:33S 37°02' E 150°02'7 6.8
2016-May-28 03:33S 37°08' E 150°04'7 6.6
2016-May-28 02:33S 37°15' E 150°05'7 7.4
2016-May-28 01:33S 37°22' E 150°02'8 7.8
2016-May-28 00:33S 37°30' E 150°01'8 7.6
2016-May-27 23:33S 37°36' E 149°55'8 8.4
2016-May-27 22:33S 37°40' E 149°46'9 8.7
2016-May-27 21:33S 37°46' E 149°38'9 8.7
2016-May-27 20:33S 37°52' E 149°30'8 8.0
2016-May-27 19:33S 37°57' E 149°23'8 7.8
2016-May-27 18:32S 38°03' E 149°15'120 7.5
2016-May-27 02:31S 39°07' E 147°06'6 6.7
2016-May-27 01:33S 39°10' E 146°58'7 7.2
2016-May-27 00:33S 39°12' E 146°49'8 7.5
2016-May-26 23:33S 39°15' E 146°40'8 7.4
2016-May-26 22:31S 39°16' E 146°31'7 7.5
2016-May-26 21:33S 39°16' E 146°21'7 7.4
2016-May-26 20:33S 39°15' E 146°12'7 7.2
2016-May-26 19:33S 39°11' E 146°04'  

Dump ship's entire track history